sensor_id;sensor_type;location;lat;lon;timestamp;temperature;humidity
27900;DHT22;15243;50.726;7.080;2022-08-03T00:01:50;19.70;99.90
27900;DHT22;15243;50.726;7.080;2022-08-03T00:04:17;19.70;99.90
27900;DHT22;15243;50.726;7.080;2022-08-03T00:06:44;19.70;99.90
27900;DHT22;15243;50.726;7.080;2022-08-03T00:09:11;19.70;99.90
27900;DHT22;15243;50.726;7.080;2022-08-03T00:11:38;19.70;99.90
27900;DHT22;15243;50.726;7.080;2022-08-03T00:14:06;19.60;99.90
27900;DHT22;15243;50.726;7.080;2022-08-03T00:16:33;19.60;99.90
27900;DHT22;15243;50.726;7.080;2022-08-03T00:19:00;19.60;99.90
27900;DHT22;15243;50.726;7.080;2022-08-03T00:21:28;19.60;99.90
27900;DHT22;15243;50.726;7.080;2022-08-03T00:23:55;19.50;99.90
27900;DHT22;15243;50.726;7.080;2022-08-03T00:26:22;19.50;99.90
27900;DHT22;15243;50.726;7.080;2022-08-03T00:28:49;19.50;99.90
27900;DHT22;15243;50.726;7.080;2022-08-03T00:31:16;19.50;99.90
27900;DHT22;15243;50.726;7.080;2022-08-03T00:34:03;19.40;99.90
27900;DHT22;15243;50.726;7.080;2022-08-03T00:36:32;19.40;99.90
27900;DHT22;15243;50.726;7.080;2022-08-03T00:38:59;19.40;99.90
27900;DHT22;15243;50.726;7.080;2022-08-03T00:41:26;19.40;99.90
27900;DHT22;15243;50.726;7.080;2022-08-03T00:43:53;19.30;99.90
27900;DHT22;15243;50.726;7.080;2022-08-03T00:46:20;19.20;99.90
27900;DHT22;15243;50.726;7.080;2022-08-03T00:48:49;19.20;99.90
27900;DHT22;15243;50.726;7.080;2022-08-03T00:51:17;19.10;99.90
27900;DHT22;15243;50.726;7.080;2022-08-03T00:53:45;19.10;99.90
27900;DHT22;15243;50.726;7.080;2022-08-03T00:56:13;19.00;99.90
27900;DHT22;15243;50.726;7.080;2022-08-03T00:58:43;19.00;99.90
27900;DHT22;15243;50.726;7.080;2022-08-03T01:01:10;19.00;99.90
27900;DHT22;15243;50.726;7.080;2022-08-03T01:03:38;19.00;99.90
27900;DHT22;15243;50.726;7.080;2022-08-03T01:06:16;19.00;99.90
27900;DHT22;15243;50.726;7.080;2022-08-03T01:08:51;18.90;99.90
27900;DHT22;15243;50.726;7.080;2022-08-03T01:14:37;18.90;99.90
27900;DHT22;15243;50.726;7.080;2022-08-03T01:17:22;18.90;99.90
27900;DHT22;15243;50.726;7.080;2022-08-03T01:20:00;18.90;99.90
27900;DHT22;15243;50.726;7.080;2022-08-03T01:22:51;18.90;99.90
27900;DHT22;15243;50.726;7.080;2022-08-03T01:31:02;18.70;99.90
27900;DHT22;15243;50.726;7.080;2022-08-03T01:33:36;18.70;99.90
27900;DHT22;15243;50.726;7.080;2022-08-03T01:36:13;18.70;99.90
27900;DHT22;15243;50.726;7.080;2022-08-03T01:38:47;18.70;99.90
27900;DHT22;15243;50.726;7.080;2022-08-03T01:41:20;18.50;99.90
27900;DHT22;15243;50.726;7.080;2022-08-03T01:43:49;18.50;99.90
27900;DHT22;15243;50.726;7.080;2022-08-03T01:46:38;18.60;99.90
27900;DHT22;15243;50.726;7.080;2022-08-03T01:49:13;18.50;99.90
27900;DHT22;15243;50.726;7.080;2022-08-03T01:51:42;18.50;99.90
27900;DHT22;15243;50.726;7.080;2022-08-03T01:54:35;18.50;99.90
27900;DHT22;15243;50.726;7.080;2022-08-03T01:57:03;18.50;99.90
27900;DHT22;15243;50.726;7.080;2022-08-03T01:59:33;18.50;99.90
27900;DHT22;15243;50.726;7.080;2022-08-03T02:02:03;18.40;99.90
27900;DHT22;15243;50.726;7.080;2022-08-03T02:04:51;18.50;99.90
27900;DHT22;15243;50.726;7.080;2022-08-03T02:07:20;18.50;99.90
27900;DHT22;15243;50.726;7.080;2022-08-03T02:09:49;18.50;99.90
27900;DHT22;15243;50.726;7.080;2022-08-03T02:12:18;18.40;99.90
27900;DHT22;15243;50.726;7.080;2022-08-03T02:14:48;18.40;99.90
27900;DHT22;15243;50.726;7.080;2022-08-03T02:17:15;18.30;99.90
27900;DHT22;15243;50.726;7.080;2022-08-03T02:19:43;18.30;99.90
27900;DHT22;15243;50.726;7.080;2022-08-03T02:22:12;18.30;99.90
27900;DHT22;15243;50.726;7.080;2022-08-03T02:24:40;18.20;99.90
27900;DHT22;15243;50.726;7.080;2022-08-03T02:27:19;18.20;99.90
27900;DHT22;15243;50.726;7.080;2022-08-03T02:29:52;18.20;99.90
27900;DHT22;15243;50.726;7.080;2022-08-03T02:32:28;18.10;99.90
27900;DHT22;15243;50.726;7.080;2022-08-03T02:34:57;18.10;99.90
27900;DHT22;15243;50.726;7.080;2022-08-03T02:37:30;18.10;99.90
27900;DHT22;15243;50.726;7.080;2022-08-03T02:40:02;18.10;99.90
27900;DHT22;15243;50.726;7.080;2022-08-03T02:42:31;18.10;99.90
27900;DHT22;15243;50.726;7.080;2022-08-03T02:45:01;18.00;99.90
27900;DHT22;15243;50.726;7.080;2022-08-03T02:47:30;18.00;99.90
27900;DHT22;15243;50.726;7.080;2022-08-03T02:50:18;18.00;99.90
27900;DHT22;15243;50.726;7.080;2022-08-03T02:52:47;17.90;99.90
27900;DHT22;15243;50.726;7.080;2022-08-03T02:55:15;17.90;99.90
27900;DHT22;15243;50.726;7.080;2022-08-03T02:57:44;17.90;99.90
27900;DHT22;15243;50.726;7.080;2022-08-03T03:00:13;17.90;99.90
27900;DHT22;15243;50.726;7.080;2022-08-03T03:02:57;17.90;99.90
27900;DHT22;15243;50.726;7.080;2022-08-03T03:05:26;17.90;99.90
27900;DHT22;15243;50.726;7.080;2022-08-03T03:08:15;17.90;99.90
27900;DHT22;15243;50.726;7.080;2022-08-03T03:10:45;17.90;99.90
27900;DHT22;15243;50.726;7.080;2022-08-03T03:13:16;17.90;99.90
27900;DHT22;15243;50.726;7.080;2022-08-03T03:15:46;17.80;99.90
27900;DHT22;15243;50.726;7.080;2022-08-03T03:18:15;17.80;99.90
27900;DHT22;15243;50.726;7.080;2022-08-03T03:20:49;17.80;99.90
27900;DHT22;15243;50.726;7.080;2022-08-03T03:23:17;17.70;99.90
27900;DHT22;15243;50.726;7.080;2022-08-03T03:25:45;17.60;99.90
27900;DHT22;15243;50.726;7.080;2022-08-03T03:28:13;17.70;99.90
27900;DHT22;15243;50.726;7.080;2022-08-03T03:30:41;17.70;99.90
27900;DHT22;15243;50.726;7.080;2022-08-03T03:33:08;17.60;99.90
27900;DHT22;15243;50.726;7.080;2022-08-03T03:35:35;17.60;99.90
27900;DHT22;15243;50.726;7.080;2022-08-03T03:38:05;17.60;99.90
27900;DHT22;15243;50.726;7.080;2022-08-03T03:40:34;17.60;99.90
27900;DHT22;15243;50.726;7.080;2022-08-03T03:43:02;17.60;99.90
27900;DHT22;15243;50.726;7.080;2022-08-03T03:45:30;17.60;99.90
27900;DHT22;15243;50.726;7.080;2022-08-03T03:48:02;17.60;99.90
27900;DHT22;15243;50.726;7.080;2022-08-03T03:50:34;17.50;99.90
27900;DHT22;15243;50.726;7.080;2022-08-03T03:53:02;17.60;99.90
27900;DHT22;15243;50.726;7.080;2022-08-03T03:55:30;17.50;99.90
27900;DHT22;15243;50.726;7.080;2022-08-03T03:57:57;17.50;99.90
27900;DHT22;15243;50.726;7.080;2022-08-03T04:00:24;17.50;99.90
27900;DHT22;15243;50.726;7.080;2022-08-03T04:02:51;17.60;99.90
27900;DHT22;15243;50.726;7.080;2022-08-03T04:05:18;17.60;99.90
27900;DHT22;15243;50.726;7.080;2022-08-03T04:08:11;17.60;99.90
27900;DHT22;15243;50.726;7.080;2022-08-03T04:13:49;17.60;99.90
27900;DHT22;15243;50.726;7.080;2022-08-03T04:16:19;17.50;99.90
27900;DHT22;15243;50.726;7.080;2022-08-03T04:18:52;17.50;99.90
27900;DHT22;15243;50.726;7.080;2022-08-03T04:21:20;17.50;99.90
27900;DHT22;15243;50.726;7.080;2022-08-03T04:23:52;17.50;99.90
27900;DHT22;15243;50.726;7.080;2022-08-03T04:26:22;17.50;99.90
27900;DHT22;15243;50.726;7.080;2022-08-03T04:28:52;17.50;99.90
27900;DHT22;15243;50.726;7.080;2022-08-03T04:31:22;17.60;99.90
27900;DHT22;15243;50.726;7.080;2022-08-03T04:33:51;17.60;99.90
27900;DHT22;15243;50.726;7.080;2022-08-03T04:36:24;17.60;99.90
27900;DHT22;15243;50.726;7.080;2022-08-03T04:39:05;17.60;99.90
27900;DHT22;15243;50.726;7.080;2022-08-03T04:41:34;17.70;99.90
27900;DHT22;15243;50.726;7.080;2022-08-03T04:44:23;17.70;99.90
27900;DHT22;15243;50.726;7.080;2022-08-03T04:46:55;17.70;99.90
27900;DHT22;15243;50.726;7.080;2022-08-03T04:49:22;17.80;99.90
27900;DHT22;15243;50.726;7.080;2022-08-03T04:51:50;17.80;99.90
27900;DHT22;15243;50.726;7.080;2022-08-03T04:54:17;17.80;99.90
27900;DHT22;15243;50.726;7.080;2022-08-03T04:56:44;17.90;99.90
27900;DHT22;15243;50.726;7.080;2022-08-03T04:59:11;17.90;99.90
27900;DHT22;15243;50.726;7.080;2022-08-03T05:01:39;18.00;99.90
27900;DHT22;15243;50.726;7.080;2022-08-03T05:04:07;18.10;99.90
27900;DHT22;15243;50.726;7.080;2022-08-03T05:06:34;18.20;99.90
27900;DHT22;15243;50.726;7.080;2022-08-03T05:09:06;18.40;99.90
27900;DHT22;15243;50.726;7.080;2022-08-03T05:11:34;18.40;99.90
27900;DHT22;15243;50.726;7.080;2022-08-03T05:14:00;18.50;99.90
27900;DHT22;15243;50.726;7.080;2022-08-03T05:16:27;18.50;99.90
27900;DHT22;15243;50.726;7.080;2022-08-03T05:18:54;18.50;99.90
27900;DHT22;15243;50.726;7.080;2022-08-03T05:21:21;18.60;99.90
27900;DHT22;15243;50.726;7.080;2022-08-03T05:23:48;18.60;99.90
27900;DHT22;15243;50.726;7.080;2022-08-03T05:26:15;18.70;99.90
27900;DHT22;15243;50.726;7.080;2022-08-03T05:28:42;18.80;99.90
27900;DHT22;15243;50.726;7.080;2022-08-03T05:31:17;18.90;99.90
27900;DHT22;15243;50.726;7.080;2022-08-03T05:33:44;18.90;99.90
27900;DHT22;15243;50.726;7.080;2022-08-03T05:36:11;19.00;99.90
27900;DHT22;15243;50.726;7.080;2022-08-03T05:38:38;19.10;99.90
27900;DHT22;15243;50.726;7.080;2022-08-03T05:41:05;19.10;99.90
27900;DHT22;15243;50.726;7.080;2022-08-03T05:43:53;19.20;99.90
27900;DHT22;15243;50.726;7.080;2022-08-03T05:46:22;19.30;99.90
27900;DHT22;15243;50.726;7.080;2022-08-03T05:48:49;19.40;99.90
27900;DHT22;15243;50.726;7.080;2022-08-03T05:51:16;19.50;99.90
27900;DHT22;15243;50.726;7.080;2022-08-03T05:56:11;19.70;99.90
27900;DHT22;15243;50.726;7.080;2022-08-03T05:58:45;19.80;99.90
27900;DHT22;15243;50.726;7.080;2022-08-03T06:01:14;19.90;99.90
27900;DHT22;15243;50.726;7.080;2022-08-03T06:03:41;20.00;99.90
27900;DHT22;15243;50.726;7.080;2022-08-03T06:06:08;20.20;99.90
27900;DHT22;15243;50.726;7.080;2022-08-03T06:08:35;20.30;99.90
27900;DHT22;15243;50.726;7.080;2022-08-03T06:11:02;20.30;99.90
27900;DHT22;15243;50.726;7.080;2022-08-03T06:13:30;20.50;99.90
27900;DHT22;15243;50.726;7.080;2022-08-03T06:15:57;20.60;99.90
27900;DHT22;15243;50.726;7.080;2022-08-03T06:18:24;20.60;99.90
27900;DHT22;15243;50.726;7.080;2022-08-03T06:20:52;20.70;99.90
27900;DHT22;15243;50.726;7.080;2022-08-03T06:23:19;20.80;99.90
27900;DHT22;15243;50.726;7.080;2022-08-03T06:25:46;21.00;99.90
27900;DHT22;15243;50.726;7.080;2022-08-03T06:28:13;21.20;99.90
27900;DHT22;15243;50.726;7.080;2022-08-03T06:31:01;21.40;99.90
27900;DHT22;15243;50.726;7.080;2022-08-03T06:33:28;21.40;99.90
27900;DHT22;15243;50.726;7.080;2022-08-03T06:36:15;21.50;99.90
27900;DHT22;15243;50.726;7.080;2022-08-03T06:38:42;21.60;99.90
27900;DHT22;15243;50.726;7.080;2022-08-03T06:41:08;21.70;99.90
27900;DHT22;15243;50.726;7.080;2022-08-03T06:43:35;21.80;99.90
27900;DHT22;15243;50.726;7.080;2022-08-03T06:46:23;21.80;99.90
27900;DHT22;15243;50.726;7.080;2022-08-03T06:48:49;22.00;99.90
27900;DHT22;15243;50.726;7.080;2022-08-03T06:51:16;22.10;99.90
27900;DHT22;15243;50.726;7.080;2022-08-03T06:53:43;22.40;99.90
27900;DHT22;15243;50.726;7.080;2022-08-03T06:56:10;22.60;99.90
27900;DHT22;15243;50.726;7.080;2022-08-03T06:58:37;22.70;99.90
27900;DHT22;15243;50.726;7.080;2022-08-03T07:01:04;22.70;99.90
27900;DHT22;15243;50.726;7.080;2022-08-03T07:03:31;22.80;99.90
27900;DHT22;15243;50.726;7.080;2022-08-03T07:05:58;23.00;99.90
27900;DHT22;15243;50.726;7.080;2022-08-03T07:08:26;23.10;99.90
27900;DHT22;15243;50.726;7.080;2022-08-03T07:11:00;23.30;99.90
27900;DHT22;15243;50.726;7.080;2022-08-03T07:13:27;23.50;99.90
27900;DHT22;15243;50.726;7.080;2022-08-03T07:15:53;23.60;99.90
27900;DHT22;15243;50.726;7.080;2022-08-03T07:18:22;23.70;99.90
27900;DHT22;15243;50.726;7.080;2022-08-03T07:20:56;23.80;99.90
27900;DHT22;15243;50.726;7.080;2022-08-03T07:23:23;23.90;99.90
27900;DHT22;15243;50.726;7.080;2022-08-03T07:25:51;24.00;99.90
27900;DHT22;15243;50.726;7.080;2022-08-03T07:28:19;24.00;99.90
27900;DHT22;15243;50.726;7.080;2022-08-03T07:30:46;24.20;99.90
27900;DHT22;15243;50.726;7.080;2022-08-03T07:33:13;24.10;99.90
27900;DHT22;15243;50.726;7.080;2022-08-03T07:35:41;24.20;99.90
27900;DHT22;15243;50.726;7.080;2022-08-03T07:38:08;24.30;99.90
27900;DHT22;15243;50.726;7.080;2022-08-03T07:40:35;24.60;99.90
27900;DHT22;15243;50.726;7.080;2022-08-03T07:43:02;24.80;99.90
27900;DHT22;15243;50.726;7.080;2022-08-03T07:45:32;24.80;99.90
27900;DHT22;15243;50.726;7.080;2022-08-03T07:47:59;24.80;99.90
27900;DHT22;15243;50.726;7.080;2022-08-03T07:50:26;24.80;99.90
27900;DHT22;15243;50.726;7.080;2022-08-03T07:52:53;24.80;99.90
27900;DHT22;15243;50.726;7.080;2022-08-03T07:55:23;25.00;99.90
27900;DHT22;15243;50.726;7.080;2022-08-03T07:58:05;25.20;99.90
27900;DHT22;15243;50.726;7.080;2022-08-03T08:00:32;25.50;99.90
27900;DHT22;15243;50.726;7.080;2022-08-03T08:02:59;25.40;99.90
27900;DHT22;15243;50.726;7.080;2022-08-03T08:05:26;25.60;99.90
27900;DHT22;15243;50.726;7.080;2022-08-03T08:07:54;25.90;99.90
27900;DHT22;15243;50.726;7.080;2022-08-03T08:10:21;26.10;99.90
27900;DHT22;15243;50.726;7.080;2022-08-03T08:12:48;26.20;99.90
27900;DHT22;15243;50.726;7.080;2022-08-03T08:15:15;26.20;99.90
27900;DHT22;15243;50.726;7.080;2022-08-03T08:17:44;26.40;99.90
27900;DHT22;15243;50.726;7.080;2022-08-03T08:20:16;26.50;99.90
27900;DHT22;15243;50.726;7.080;2022-08-03T08:23:00;26.50;99.90
27900;DHT22;15243;50.726;7.080;2022-08-03T08:25:29;26.70;99.90
27900;DHT22;15243;50.726;7.080;2022-08-03T08:27:57;26.80;99.90
27900;DHT22;15243;50.726;7.080;2022-08-03T08:30:48;27.00;99.90
27900;DHT22;15243;50.726;7.080;2022-08-03T08:33:15;27.30;99.90
27900;DHT22;15243;50.726;7.080;2022-08-03T08:35:50;27.40;99.90
27900;DHT22;15243;50.726;7.080;2022-08-03T08:38:17;27.60;99.90
27900;DHT22;15243;50.726;7.080;2022-08-03T08:40:44;27.50;99.90
27900;DHT22;15243;50.726;7.080;2022-08-03T08:43:11;27.50;99.90
27900;DHT22;15243;50.726;7.080;2022-08-03T08:45:40;27.50;99.90
27900;DHT22;15243;50.726;7.080;2022-08-03T08:48:08;27.70;99.90
27900;DHT22;15243;50.726;7.080;2022-08-03T08:50:36;27.70;99.90
27900;DHT22;15243;50.726;7.080;2022-08-03T08:53:06;27.90;99.90
27900;DHT22;15243;50.726;7.080;2022-08-03T08:55:45;27.90;99.90
27900;DHT22;15243;50.726;7.080;2022-08-03T08:58:29;27.80;99.90
27900;DHT22;15243;50.726;7.080;2022-08-03T09:00:58;27.90;99.90
27900;DHT22;15243;50.726;7.080;2022-08-03T09:03:25;28.20;99.90
27900;DHT22;15243;50.726;7.080;2022-08-03T09:05:58;28.20;99.90
27900;DHT22;15243;50.726;7.080;2022-08-03T09:08:25;28.40;99.90
27900;DHT22;15243;50.726;7.080;2022-08-03T09:10:52;28.50;99.90
27900;DHT22;15243;50.726;7.080;2022-08-03T09:13:19;28.50;99.90
27900;DHT22;15243;50.726;7.080;2022-08-03T09:15:46;28.60;99.90
27900;DHT22;15243;50.726;7.080;2022-08-03T09:18:30;28.90;99.90
27900;DHT22;15243;50.726;7.080;2022-08-03T09:21:26;29.10;99.90
27900;DHT22;15243;50.726;7.080;2022-08-03T09:24:00;29.20;99.90
27900;DHT22;15243;50.726;7.080;2022-08-03T09:26:31;29.00;99.90
27900;DHT22;15243;50.726;7.080;2022-08-03T09:29:19;29.00;99.90
27900;DHT22;15243;50.726;7.080;2022-08-03T09:31:46;29.30;99.90
27900;DHT22;15243;50.726;7.080;2022-08-03T09:34:16;29.30;99.90
27900;DHT22;15243;50.726;7.080;2022-08-03T09:36:47;29.40;99.90
27900;DHT22;15243;50.726;7.080;2022-08-03T09:39:19;29.50;99.90
27900;DHT22;15243;50.726;7.080;2022-08-03T09:42:12;29.70;99.90
27900;DHT22;15243;50.726;7.080;2022-08-03T09:44:45;29.80;99.90
27900;DHT22;15243;50.726;7.080;2022-08-03T09:47:14;29.50;99.90
27900;DHT22;15243;50.726;7.080;2022-08-03T09:49:56;29.00;99.90
27900;DHT22;15243;50.726;7.080;2022-08-03T09:52:30;29.10;99.90
27900;DHT22;15243;50.726;7.080;2022-08-03T09:55:16;29.10;99.90
27900;DHT22;15243;50.726;7.080;2022-08-03T09:58:07;29.10;99.90
27900;DHT22;15243;50.726;7.080;2022-08-03T10:01:00;29.40;99.90
27900;DHT22;15243;50.726;7.080;2022-08-03T10:03:31;29.50;99.90
27900;DHT22;15243;50.726;7.080;2022-08-03T10:05:58;29.80;99.90
27900;DHT22;15243;50.726;7.080;2022-08-03T10:08:39;29.80;99.90
27900;DHT22;15243;50.726;7.080;2022-08-03T10:11:06;30.00;99.90
27900;DHT22;15243;50.726;7.080;2022-08-03T10:13:35;29.80;99.90
27900;DHT22;15243;50.726;7.080;2022-08-03T10:16:03;29.50;99.90
27900;DHT22;15243;50.726;7.080;2022-08-03T10:18:50;29.40;99.90
27900;DHT22;15243;50.726;7.080;2022-08-03T10:21:18;29.80;99.90
27900;DHT22;15243;50.726;7.080;2022-08-03T10:23:45;30.10;99.90
27900;DHT22;15243;50.726;7.080;2022-08-03T10:26:15;30.40;99.90
27900;DHT22;15243;50.726;7.080;2022-08-03T10:28:48;30.50;99.90
27900;DHT22;15243;50.726;7.080;2022-08-03T10:31:17;30.70;99.90
27900;DHT22;15243;50.726;7.080;2022-08-03T10:33:49;30.70;99.90
27900;DHT22;15243;50.726;7.080;2022-08-03T10:36:22;30.80;99.90
27900;DHT22;15243;50.726;7.080;2022-08-03T10:38:51;30.90;99.90
27900;DHT22;15243;50.726;7.080;2022-08-03T10:41:20;30.80;99.90
27900;DHT22;15243;50.726;7.080;2022-08-03T10:46:25;30.20;99.90
27900;DHT22;15243;50.726;7.080;2022-08-03T10:48:53;30.10;99.90
27900;DHT22;15243;50.726;7.080;2022-08-03T10:51:22;30.50;99.90
27900;DHT22;15243;50.726;7.080;2022-08-03T10:53:50;30.10;99.90
27900;DHT22;15243;50.726;7.080;2022-08-03T10:56:39;30.10;99.90
27900;DHT22;15243;50.726;7.080;2022-08-03T11:02:14;30.80;99.90
27900;DHT22;15243;50.726;7.080;2022-08-03T11:04:42;31.20;99.90
27900;DHT22;15243;50.726;7.080;2022-08-03T11:07:17;31.50;99.90
27900;DHT22;15243;50.726;7.080;2022-08-03T11:09:52;31.90;99.90
27900;DHT22;15243;50.726;7.080;2022-08-03T11:12:37;32.30;99.90
27900;DHT22;15243;50.726;7.080;2022-08-03T11:15:06;32.40;99.30
27900;DHT22;15243;50.726;7.080;2022-08-03T11:17:35;32.40;99.90
27900;DHT22;15243;50.726;7.080;2022-08-03T11:20:55;32.60;99.50
27900;DHT22;15243;50.726;7.080;2022-08-03T11:23:45;32.40;97.30
27900;DHT22;15243;50.726;7.080;2022-08-03T11:26:31;32.30;97.90
27900;DHT22;15243;50.726;7.080;2022-08-03T11:29:37;32.60;99.80
27900;DHT22;15243;50.726;7.080;2022-08-03T11:35:19;32.00;98.40
27900;DHT22;15243;50.726;7.080;2022-08-03T11:43:02;32.10;94.80
27900;DHT22;15243;50.726;7.080;2022-08-03T11:45:29;32.20;95.40
27900;DHT22;15243;50.726;7.080;2022-08-03T11:47:59;32.30;95.30
27900;DHT22;15243;50.726;7.080;2022-08-03T11:50:35;32.30;93.70
27900;DHT22;15243;50.726;7.080;2022-08-03T11:53:04;32.40;92.70
27900;DHT22;15243;50.726;7.080;2022-08-03T11:55:32;32.40;92.00
27900;DHT22;15243;50.726;7.080;2022-08-03T11:58:01;32.20;93.90
27900;DHT22;15243;50.726;7.080;2022-08-03T12:00:49;32.50;92.80
27900;DHT22;15243;50.726;7.080;2022-08-03T12:03:19;32.40;92.80
27900;DHT22;15243;50.726;7.080;2022-08-03T12:05:51;32.70;92.60
27900;DHT22;15243;50.726;7.080;2022-08-03T12:10:56;32.90;90.90
27900;DHT22;15243;50.726;7.080;2022-08-03T12:13:23;32.10;90.50
27900;DHT22;15243;50.726;7.080;2022-08-03T12:16:19;32.70;91.50
27900;DHT22;15243;50.726;7.080;2022-08-03T12:18:56;32.70;90.20
27900;DHT22;15243;50.726;7.080;2022-08-03T12:21:23;32.70;89.00
27900;DHT22;15243;50.726;7.080;2022-08-03T12:23:58;33.10;90.40
27900;DHT22;15243;50.726;7.080;2022-08-03T12:26:27;33.10;86.00
27900;DHT22;15243;50.726;7.080;2022-08-03T12:28:55;33.50;89.30
27900;DHT22;15243;50.726;7.080;2022-08-03T12:31:23;33.60;85.00
27900;DHT22;15243;50.726;7.080;2022-08-03T12:36:25;33.00;86.10
27900;DHT22;15243;50.726;7.080;2022-08-03T12:39:04;32.70;88.60
27900;DHT22;15243;50.726;7.080;2022-08-03T12:41:34;33.00;88.10
27900;DHT22;15243;50.726;7.080;2022-08-03T12:44:03;33.60;87.80
27900;DHT22;15243;50.726;7.080;2022-08-03T12:46:41;33.80;86.50
27900;DHT22;15243;50.726;7.080;2022-08-03T12:49:13;34.00;87.20
27900;DHT22;15243;50.726;7.080;2022-08-03T12:54:21;34.40;80.30
27900;DHT22;15243;50.726;7.080;2022-08-03T12:57:07;34.40;80.20
27900;DHT22;15243;50.726;7.080;2022-08-03T12:59:39;34.60;80.20
27900;DHT22;15243;50.726;7.080;2022-08-03T13:02:24;34.30;78.00
27900;DHT22;15243;50.726;7.080;2022-08-03T13:04:53;33.40;79.80
27900;DHT22;15243;50.726;7.080;2022-08-03T13:07:21;33.20;79.20
27900;DHT22;15243;50.726;7.080;2022-08-03T13:09:53;33.40;79.20
27900;DHT22;15243;50.726;7.080;2022-08-03T13:12:23;33.60;78.00
27900;DHT22;15243;50.726;7.080;2022-08-03T13:14:58;34.10;77.40
27900;DHT22;15243;50.726;7.080;2022-08-03T13:17:26;34.20;77.00
27900;DHT22;15243;50.726;7.080;2022-08-03T13:19:53;35.00;75.50
27900;DHT22;15243;50.726;7.080;2022-08-03T13:22:27;35.00;76.30
27900;DHT22;15243;50.726;7.080;2022-08-03T13:24:58;34.70;76.30
27900;DHT22;15243;50.726;7.080;2022-08-03T13:27:27;34.80;73.40
27900;DHT22;15243;50.726;7.080;2022-08-03T13:30:15;35.00;73.10
27900;DHT22;15243;50.726;7.080;2022-08-03T13:32:56;35.50;72.50
27900;DHT22;15243;50.726;7.080;2022-08-03T13:35:24;35.20;68.20
27900;DHT22;15243;50.726;7.080;2022-08-03T13:37:51;34.30;68.10
27900;DHT22;15243;50.726;7.080;2022-08-03T13:40:18;34.10;71.70
27900;DHT22;15243;50.726;7.080;2022-08-03T13:42:49;34.10;70.50
27900;DHT22;15243;50.726;7.080;2022-08-03T13:45:16;34.10;71.90
27900;DHT22;15243;50.726;7.080;2022-08-03T13:47:43;34.50;76.20
27900;DHT22;15243;50.726;7.080;2022-08-03T13:50:10;35.00;70.90
27900;DHT22;15243;50.726;7.080;2022-08-03T13:52:37;35.00;69.20
27900;DHT22;15243;50.726;7.080;2022-08-03T13:55:05;34.60;68.20
27900;DHT22;15243;50.726;7.080;2022-08-03T13:57:34;34.30;70.20
27900;DHT22;15243;50.726;7.080;2022-08-03T14:00:21;34.00;70.50
27900;DHT22;15243;50.726;7.080;2022-08-03T14:02:58;34.20;69.30
27900;DHT22;15243;50.726;7.080;2022-08-03T14:05:43;34.50;68.10
27900;DHT22;15243;50.726;7.080;2022-08-03T14:08:11;34.30;64.60
27900;DHT22;15243;50.726;7.080;2022-08-03T14:10:41;33.90;67.30
27900;DHT22;15243;50.726;7.080;2022-08-03T14:13:10;34.00;72.30
27900;DHT22;15243;50.726;7.080;2022-08-03T14:15:37;34.40;74.40
27900;DHT22;15243;50.726;7.080;2022-08-03T14:18:08;35.00;71.30
27900;DHT22;15243;50.726;7.080;2022-08-03T14:20:41;35.30;67.10
27900;DHT22;15243;50.726;7.080;2022-08-03T14:23:17;35.30;64.60
27900;DHT22;15243;50.726;7.080;2022-08-03T14:25:44;35.50;64.00
27900;DHT22;15243;50.726;7.080;2022-08-03T14:28:20;35.40;63.50
27900;DHT22;15243;50.726;7.080;2022-08-03T14:30:51;35.80;66.10
27900;DHT22;15243;50.726;7.080;2022-08-03T14:33:18;35.80;65.20
27900;DHT22;15243;50.726;7.080;2022-08-03T14:35:46;35.40;62.40
27900;DHT22;15243;50.726;7.080;2022-08-03T14:38:13;34.80;62.20
27900;DHT22;15243;50.726;7.080;2022-08-03T14:40:40;35.30;63.90
27900;DHT22;15243;50.726;7.080;2022-08-03T14:43:07;34.60;62.50
27900;DHT22;15243;50.726;7.080;2022-08-03T14:45:34;35.20;65.30
27900;DHT22;15243;50.726;7.080;2022-08-03T14:48:02;35.80;62.70
27900;DHT22;15243;50.726;7.080;2022-08-03T14:50:50;35.60;62.70
27900;DHT22;15243;50.726;7.080;2022-08-03T14:53:18;34.80;61.80
27900;DHT22;15243;50.726;7.080;2022-08-03T14:55:46;34.60;67.40
27900;DHT22;15243;50.726;7.080;2022-08-03T14:58:26;34.30;68.80
27900;DHT22;15243;50.726;7.080;2022-08-03T15:00:54;33.70;67.40
27900;DHT22;15243;50.726;7.080;2022-08-03T15:03:22;33.50;70.70
27900;DHT22;15243;50.726;7.080;2022-08-03T15:05:52;33.40;70.40
27900;DHT22;15243;50.726;7.080;2022-08-03T15:08:20;33.80;72.00
27900;DHT22;15243;50.726;7.080;2022-08-03T15:10:48;34.10;66.70
27900;DHT22;15243;50.726;7.080;2022-08-03T15:13:16;34.10;68.00
27900;DHT22;15243;50.726;7.080;2022-08-03T15:15:44;34.70;68.30
27900;DHT22;15243;50.726;7.080;2022-08-03T15:18:11;35.10;70.10
27900;DHT22;15243;50.726;7.080;2022-08-03T15:20:38;35.40;68.70
27900;DHT22;15243;50.726;7.080;2022-08-03T15:23:12;35.20;67.70
27900;DHT22;15243;50.726;7.080;2022-08-03T15:25:39;35.20;65.50
27900;DHT22;15243;50.726;7.080;2022-08-03T15:28:26;34.70;66.20
27900;DHT22;15243;50.726;7.080;2022-08-03T15:30:53;34.40;65.00
27900;DHT22;15243;50.726;7.080;2022-08-03T15:33:20;34.30;66.70
27900;DHT22;15243;50.726;7.080;2022-08-03T15:35:47;34.30;66.50
27900;DHT22;15243;50.726;7.080;2022-08-03T15:38:15;33.90;66.90
27900;DHT22;15243;50.726;7.080;2022-08-03T15:40:44;34.00;70.50
27900;DHT22;15243;50.726;7.080;2022-08-03T15:43:11;33.70;68.80
27900;DHT22;15243;50.726;7.080;2022-08-03T15:45:38;33.60;69.60
27900;DHT22;15243;50.726;7.080;2022-08-03T15:48:07;33.50;69.90
27900;DHT22;15243;50.726;7.080;2022-08-03T15:50:34;33.70;69.50
27900;DHT22;15243;50.726;7.080;2022-08-03T15:53:02;34.10;68.40
27900;DHT22;15243;50.726;7.080;2022-08-03T15:55:29;34.60;69.50
27900;DHT22;15243;50.726;7.080;2022-08-03T15:57:57;34.50;68.30
27900;DHT22;15243;50.726;7.080;2022-08-03T16:00:44;34.20;66.00
27900;DHT22;15243;50.726;7.080;2022-08-03T16:03:11;34.70;69.80
27900;DHT22;15243;50.726;7.080;2022-08-03T16:05:38;34.70;66.80
27900;DHT22;15243;50.726;7.080;2022-08-03T16:08:05;34.60;65.80
27900;DHT22;15243;50.726;7.080;2022-08-03T16:10:39;34.50;66.80
27900;DHT22;15243;50.726;7.080;2022-08-03T16:13:06;34.40;67.80
27900;DHT22;15243;50.726;7.080;2022-08-03T16:15:33;34.30;65.40
27900;DHT22;15243;50.726;7.080;2022-08-03T16:18:07;33.90;65.50
27900;DHT22;15243;50.726;7.080;2022-08-03T16:20:34;33.90;67.70
27900;DHT22;15243;50.726;7.080;2022-08-03T16:23:02;33.90;68.80
27900;DHT22;15243;50.726;7.080;2022-08-03T16:25:41;33.90;67.00
27900;DHT22;15243;50.726;7.080;2022-08-03T16:28:08;33.90;68.50
27900;DHT22;15243;50.726;7.080;2022-08-03T16:30:41;33.90;67.20
27900;DHT22;15243;50.726;7.080;2022-08-03T16:33:10;33.90;66.60